sensor_id;sensor_type;location;lat;lon;timestamp;pressure;altitude;pressure_sealevel;temperature;humidity
12897;BME280;6516;35.028;32.372;2023-02-03T00:02:08;100715.13;;;8.08;81.01
12897;BME280;6516;35.028;32.372;2023-02-03T00:04:35;100709.88;;;8.08;81.25
12897;BME280;6516;35.028;32.372;2023-02-03T00:07:03;100710.75;;;8.10;80.99
12897;BME280;6516;35.028;32.372;2023-02-03T00:09:32;100709.00;;;8.08;80.73
12897;BME280;6516;35.028;32.372;2023-02-03T00:12:00;100716.00;;;8.13;80.55
12897;BME280;6516;35.028;32.372;2023-02-03T00:14:28;100711.63;;;8.12;79.57
12897;BME280;6516;35.028;32.372;2023-02-03T00:16:55;100710.75;;;8.15;79.58
12897;BME280;6516;35.028;32.372;2023-02-03T00:19:23;100711.69;;;8.21;79.23
12897;BME280;6516;35.028;32.372;2023-02-03T00:21:51;100704.69;;;8.35;78.75
12897;BME280;6516;35.028;32.372;2023-02-03T00:24:19;100702.94;;;8.40;78.68
12897;BME280;6516;35.028;32.372;2023-02-03T00:26:50;100703.81;;;8.48;77.64
12897;BME280;6516;35.028;32.372;2023-02-03T00:29:17;100699.41;;;8.59;76.90
12897;BME280;6516;35.028;32.372;2023-02-03T00:31:49;100698.53;;;8.66;76.64
12897;BME280;6516;35.028;32.372;2023-02-03T00:34:17;100696.78;;;8.73;76.04
12897;BME280;6516;35.028;32.372;2023-02-03T00:36:45;100691.50;;;8.80;75.51
12897;BME280;6516;35.028;32.372;2023-02-03T00:39:13;100688.88;;;8.89;75.17
12897;BME280;6516;35.028;32.372;2023-02-03T00:41:41;100678.38;;;8.86;74.98
12897;BME280;6516;35.028;32.372;2023-02-03T00:44:10;100677.47;;;8.92;75.50
12897;BME280;6516;35.028;32.372;2023-02-03T00:46:38;100683.63;;;8.79;76.13
12897;BME280;6516;35.028;32.372;2023-02-03T00:49:06;100688.06;;;8.56;77.39
12897;BME280;6516;35.028;32.372;2023-02-03T00:51:34;100694.19;;;8.55;77.70
12897;BME280;6516;35.028;32.372;2023-02-03T00:54:01;100681.03;;;8.65;77.30
12897;BME280;6516;35.028;32.372;2023-02-03T00:56:29;100679.31;;;8.46;78.16
12897;BME280;6516;35.028;32.372;2023-02-03T00:58:57;100680.19;;;8.42;78.61
12897;BME280;6516;35.028;32.372;2023-02-03T01:01:26;100682.81;;;8.30;79.17
12897;BME280;6516;35.028;32.372;2023-02-03T01:03:54;100683.66;;;8.38;78.98
12897;BME280;6516;35.028;32.372;2023-02-03T01:06:23;100684.56;;;8.24;79.39
12897;BME280;6516;35.028;32.372;2023-02-03T01:08:50;100688.88;;;8.11;80.22
12897;BME280;6516;35.028;32.372;2023-02-03T01:11:20;100685.41;;;8.09;80.38
12897;BME280;6516;35.028;32.372;2023-02-03T01:13:49;100684.53;;;8.12;79.53
12897;BME280;6516;35.028;32.372;2023-02-03T01:16:19;100689.78;;;8.27;79.34
12897;BME280;6516;35.028;32.372;2023-02-03T01:18:50;100685.44;;;8.21;79.62
12897;BME280;6516;35.028;32.372;2023-02-03T01:21:22;100684.53;;;8.13;80.70
12897;BME280;6516;35.028;32.372;2023-02-03T01:23:50;100685.41;;;8.18;80.57
12897;BME280;6516;35.028;32.372;2023-02-03T01:26:20;100681.97;;;8.25;80.28
12897;BME280;6516;35.028;32.372;2023-02-03T01:28:53;100675.81;;;8.35;79.81
12897;BME280;6516;35.028;32.372;2023-02-03T01:31:23;100663.56;;;8.37;80.21
12897;BME280;6516;35.028;32.372;2023-02-03T01:33:54;100663.59;;;8.34;80.79
12897;BME280;6516;35.028;32.372;2023-02-03T01:36:24;100663.59;;;8.31;81.32
12897;BME280;6516;35.028;32.372;2023-02-03T01:38:52;100670.56;;;8.34;81.90
12897;BME280;6516;35.028;32.372;2023-02-03T01:41:21;100660.94;;;8.40;82.61
12897;BME280;6516;35.028;32.372;2023-02-03T01:43:52;100662.69;;;8.50;84.35
12897;BME280;6516;35.028;32.372;2023-02-03T01:46:25;100662.69;;;8.47;87.19
12897;BME280;6516;35.028;32.372;2023-02-03T01:49:02;100659.22;;;8.21;89.82
12897;BME280;6516;35.028;32.372;2023-02-03T01:51:34;100666.19;;;8.07;91.94
12897;BME280;6516;35.028;32.372;2023-02-03T01:54:06;100661.78;;;7.91;97.39
12897;BME280;6516;35.028;32.372;2023-02-03T01:56:39;100659.16;;;7.85;100.00
12897;BME280;6516;35.028;32.372;2023-02-03T01:59:10;100661.78;;;7.78;100.00
12897;BME280;6516;35.028;32.372;2023-02-03T02:01:39;100656.53;;;7.69;100.00
12897;BME280;6516;35.028;32.372;2023-02-03T02:04:08;100663.50;;;7.67;100.00
12897;BME280;6516;35.028;32.372;2023-02-03T02:06:39;100667.00;;;7.66;100.00
12897;BME280;6516;35.028;32.372;2023-02-03T02:09:08;100665.25;;;7.69;100.00
12897;BME280;6516;35.028;32.372;2023-02-03T02:11:35;100664.38;;;7.72;100.00
12897;BME280;6516;35.028;32.372;2023-02-03T02:14:03;100669.63;;;7.79;100.00
12897;BME280;6516;35.028;32.372;2023-02-03T02:16:40;100672.25;;;7.88;100.00
12897;BME280;6516;35.028;32.372;2023-02-03T02:23:16;100677.53;;;8.08;100.00
12897;BME280;6516;35.028;32.372;2023-02-03T02:33:15;100673.16;;;7.99;100.00
12897;BME280;6516;35.028;32.372;2023-02-03T02:35:56;100677.53;;;7.94;100.00
12897;BME280;6516;35.028;32.372;2023-02-03T02:38:37;100684.53;;;7.89;100.00
12897;BME280;6516;35.028;32.372;2023-02-03T02:41:16;100681.00;;;7.86;100.00
12897;BME280;6516;35.028;32.372;2023-02-03T02:43:50;100672.28;;;7.78;100.00
12897;BME280;6516;35.028;32.372;2023-02-03T02:46:28;100680.09;;;7.70;100.00
12897;BME280;6516;35.028;32.372;2023-02-03T02:49:03;100667.91;;;7.75;100.00
12897;BME280;6516;35.028;32.372;2023-02-03T02:51:34;100675.72;;;7.69;100.00
12897;BME280;6516;35.028;32.372;2023-02-03T02:54:05;100673.97;;;7.55;100.00
12897;BME280;6516;35.028;32.372;2023-02-03T02:56:35;100672.19;;;7.48;100.00
12897;BME280;6516;35.028;32.372;2023-02-03T02:59:06;100674.75;;;7.37;100.00
12897;BME280;6516;35.028;32.372;2023-02-03T03:01:34;100668.63;;;7.29;100.00
12897;BME280;6516;35.028;32.372;2023-02-03T03:04:04;100663.34;;;7.20;100.00
12897;BME280;6516;35.028;32.372;2023-02-03T03:06:36;100671.19;;;7.20;100.00
12897;BME280;6516;35.028;32.372;2023-02-03T03:09:11;100675.56;;;7.11;100.00
12897;BME280;6516;35.028;32.372;2023-02-03T03:11:44;100680.72;;;6.99;100.00
12897;BME280;6516;35.028;32.372;2023-02-03T03:14:17;100674.63;;;7.01;100.00
12897;BME280;6516;35.028;32.372;2023-02-03T03:16:49;100676.34;;;6.92;100.00
12897;BME280;6516;35.028;32.372;2023-02-03T03:19:24;100678.03;;;6.88;100.00
12897;BME280;6516;35.028;32.372;2023-02-03T03:21:57;100673.72;;;6.95;100.00
12897;BME280;6516;35.028;32.372;2023-02-03T03:24:32;100672.00;;;7.01;100.00
12897;BME280;6516;35.028;32.372;2023-02-03T03:27:07;100672.88;;;7.05;100.00
12897;BME280;6516;35.028;32.372;2023-02-03T03:29:42;100672.91;;;7.09;100.00
12897;BME280;6516;35.028;32.372;2023-02-03T03:32:14;100686.94;;;7.23;100.00
12897;BME280;6516;35.028;32.372;2023-02-03T03:34:44;100687.88;;;7.40;100.00
12897;BME280;6516;35.028;32.372;2023-02-03T03:37:17;100686.16;;;7.51;100.00
12897;BME280;6516;35.028;32.372;2023-02-03T03:39:48;100694.94;;;7.64;100.00
12897;BME280;6516;35.028;32.372;2023-02-03T03:42:21;100693.22;;;7.75;100.00
12897;BME280;6516;35.028;32.372;2023-02-03T03:44:56;100688.88;;;7.84;100.00
12897;BME280;6516;35.028;32.372;2023-02-03T03:47:30;100686.28;;;7.93;100.00
12897;BME280;6516;35.028;32.372;2023-02-03T03:50:02;100685.38;;;7.97;100.00
12897;BME280;6516;35.028;32.372;2023-02-03T03:52:35;100694.13;;;8.01;100.00
12897;BME280;6516;35.028;32.372;2023-02-03T03:55:07;100694.16;;;8.02;100.00
12897;BME280;6516;35.028;32.372;2023-02-03T03:57:39;100683.63;;;8.04;100.00
12897;BME280;6516;35.028;32.372;2023-02-03T04:00:12;100692.38;;;8.03;100.00
12897;BME280;6516;35.028;32.372;2023-02-03T04:02:46;100697.63;;;8.04;100.00
12897;BME280;6516;35.028;32.372;2023-02-03T04:05:19;100700.25;;;8.06;100.00
12897;BME280;6516;35.028;32.372;2023-02-03T04:07:47;100710.72;;;8.09;100.00
12897;BME280;6516;35.028;32.372;2023-02-03T04:10:20;100707.25;;;8.13;100.00
12897;BME280;6516;35.028;32.372;2023-02-03T04:12:52;100702.00;;;8.13;100.00
12897;BME280;6516;35.028;32.372;2023-02-03T04:15:20;100709.88;;;8.10;100.00
12897;BME280;6516;35.028;32.372;2023-02-03T04:17:48;100706.38;;;8.02;100.00
12897;BME280;6516;35.028;32.372;2023-02-03T04:20:17;100709.00;;;8.00;100.00
12897;BME280;6516;35.028;32.372;2023-02-03T04:22:45;100713.34;;;7.92;100.00
12897;BME280;6516;35.028;32.372;2023-02-03T04:25:13;100708.94;;;7.82;100.00
12897;BME280;6516;35.028;32.372;2023-02-03T04:27:41;100708.06;;;7.77;100.00
12897;BME280;6516;35.028;32.372;2023-02-03T04:30:10;100695.81;;;7.73;99.99
12897;BME280;6516;35.028;32.372;2023-02-03T04:32:39;100704.56;;;7.66;99.83
12897;BME280;6516;35.028;32.372;2023-02-03T04:35:07;100701.06;;;7.67;99.83
12897;BME280;6516;35.028;32.372;2023-02-03T04:37:36;100707.19;;;7.66;99.72
12897;BME280;6516;35.028;32.372;2023-02-03T04:40:05;100708.03;;;7.68;99.63
12897;BME280;6516;35.028;32.372;2023-02-03T04:42:36;100711.53;;;7.64;99.27
12897;BME280;6516;35.028;32.372;2023-02-03T04:45:04;100702.75;;;7.56;99.01
12897;BME280;6516;35.028;32.372;2023-02-03T04:47:34;100703.66;;;7.57;99.06
12897;BME280;6516;35.028;32.372;2023-02-03T04:50:02;100702.75;;;7.46;99.03
12897;BME280;6516;35.028;32.372;2023-02-03T04:52:30;100707.97;;;7.41;98.74
12897;BME280;6516;35.028;32.372;2023-02-03T04:54:59;100704.44;;;7.36;98.67
12897;BME280;6516;35.028;32.372;2023-02-03T04:57:28;100710.53;;;7.31;98.76
12897;BME280;6516;35.028;32.372;2023-02-03T04:59:56;100707.91;;;7.26;98.30
12897;BME280;6516;35.028;32.372;2023-02-03T05:02:24;100707.03;;;7.27;98.59
12897;BME280;6516;35.028;32.372;2023-02-03T05:04:51;100707.88;;;7.23;98.38
12897;BME280;6516;35.028;32.372;2023-02-03T05:07:19;100712.22;;;7.17;98.73
12897;BME280;6516;35.028;32.372;2023-02-03T05:09:47;100701.78;;;7.21;97.83
12897;BME280;6516;35.028;32.372;2023-02-03T05:12:16;100708.78;;;7.25;97.48
12897;BME280;6516;35.028;32.372;2023-02-03T05:14:44;100707.94;;;7.35;97.26
12897;BME280;6516;35.028;32.372;2023-02-03T05:17:12;100706.19;;;7.31;96.53
12897;BME280;6516;35.028;32.372;2023-02-03T05:19:40;100703.56;;;7.37;96.71
12897;BME280;6516;35.028;32.372;2023-02-03T05:22:07;100699.22;;;7.42;96.76
12897;BME280;6516;35.028;32.372;2023-02-03T05:24:35;100701.00;;;7.46;96.34
12897;BME280;6516;35.028;32.372;2023-02-03T05:27:03;100707.13;;;7.59;96.14
12897;BME280;6516;35.028;32.372;2023-02-03T05:29:32;100701.06;;;7.70;96.01
12897;BME280;6516;35.028;32.372;2023-02-03T05:32:00;100702.84;;;7.88;95.68
12897;BME280;6516;35.028;32.372;2023-02-03T05:34:28;100698.53;;;8.12;94.86
12897;BME280;6516;35.028;32.372;2023-02-03T05:36:56;100697.66;;;8.48;93.57
12897;BME280;6516;35.028;32.372;2023-02-03T05:39:23;100701.97;;;8.83;89.53
12897;BME280;6516;35.028;32.372;2023-02-03T05:41:51;100690.59;;;9.02;89.60
12897;BME280;6516;35.028;32.372;2023-02-03T05:44:18;100704.50;;;9.19;90.89
12897;BME280;6516;35.028;32.372;2023-02-03T05:46:48;100702.69;;;9.36;89.49
12897;BME280;6516;35.028;32.372;2023-02-03T05:49:16;100695.63;;;9.50;89.28
12897;BME280;6516;35.028;32.372;2023-02-03T05:51:44;100699.94;;;9.62;88.55
12897;BME280;6516;35.028;32.372;2023-02-03T05:54:12;100687.63;;;9.73;87.24
12897;BME280;6516;35.028;32.372;2023-02-03T05:56:40;100688.44;;;9.84;87.21
12897;BME280;6516;35.028;32.372;2023-02-03T05:59:10;100695.41;;;9.91;86.61
12897;BME280;6516;35.028;32.372;2023-02-03T06:01:38;100697.94;;;10.03;86.92
12897;BME280;6516;35.028;32.372;2023-02-03T06:04:07;100693.53;;;10.11;85.16
12897;BME280;6516;35.028;32.372;2023-02-03T06:06:34;100698.66;;;10.27;85.59
12897;BME280;6516;35.028;32.372;2023-02-03T06:09:04;100695.13;;;10.36;85.54
12897;BME280;6516;35.028;32.372;2023-02-03T06:11:34;100698.53;;;10.45;86.04
12897;BME280;6516;35.028;32.372;2023-02-03T06:14:03;100701.97;;;10.50;86.05
12897;BME280;6516;35.028;32.372;2023-02-03T06:16:31;100697.53;;;10.58;86.47
12897;BME280;6516;35.028;32.372;2023-02-03T06:18:59;100696.59;;;10.65;86.68
12897;BME280;6516;35.028;32.372;2023-02-03T06:21:29;100705.25;;;10.75;86.73
12897;BME280;6516;35.028;32.372;2023-02-03T06:23:57;100703.47;;;10.78;85.92
12897;BME280;6516;35.028;32.372;2023-02-03T06:26:24;100698.16;;;10.84;86.18
12897;BME280;6516;35.028;32.372;2023-02-03T06:28:52;100699.91;;;10.85;86.94
12897;BME280;6516;35.028;32.372;2023-02-03T06:31:20;100690.19;;;10.89;87.02
12897;BME280;6516;35.028;32.372;2023-02-03T06:33:48;100690.16;;;10.92;87.03
12897;BME280;6516;35.028;32.372;2023-02-03T06:36:15;100694.50;;;10.98;87.14
12897;BME280;6516;35.028;32.372;2023-02-03T06:38:44;100694.44;;;11.03;87.23
12897;BME280;6516;35.028;32.372;2023-02-03T06:41:12;100689.97;;;11.10;87.14
12897;BME280;6516;35.028;32.372;2023-02-03T06:43:40;100692.53;;;11.16;87.19
12897;BME280;6516;35.028;32.372;2023-02-03T06:46:07;100695.13;;;11.22;86.81
12897;BME280;6516;35.028;32.372;2023-02-03T06:48:35;100701.13;;;11.32;84.90
12897;BME280;6516;35.028;32.372;2023-02-03T06:51:03;100707.13;;;11.44;85.97
12897;BME280;6516;35.028;32.372;2023-02-03T06:53:32;100707.84;;;11.57;86.13
12897;BME280;6516;35.028;32.372;2023-02-03T06:56:01;100711.22;;;11.69;85.90
12897;BME280;6516;35.028;32.372;2023-02-03T06:58:29;100709.25;;;11.85;86.02
12897;BME280;6516;35.028;32.372;2023-02-03T07:00:57;100707.31;;;11.97;85.80
12897;BME280;6516;35.028;32.372;2023-02-03T07:03:24;100715.06;;;12.08;85.37
12897;BME280;6516;35.028;32.372;2023-02-03T07:05:52;100708.72;;;12.21;86.30
12897;BME280;6516;35.028;32.372;2023-02-03T07:08:20;100716.44;;;12.33;85.76
12897;BME280;6516;35.028;32.372;2023-02-03T07:10:52;100710.78;;;12.55;85.53
12897;BME280;6516;35.028;32.372;2023-02-03T07:13:21;100707.56;;;12.87;85.61
12897;BME280;6516;35.028;32.372;2023-02-03T07:15:49;100711.69;;;13.06;83.88
12897;BME280;6516;35.028;32.372;2023-02-03T07:18:17;100714.03;;;13.19;80.69
12897;BME280;6516;35.028;32.372;2023-02-03T07:20:49;100709.31;;;13.35;78.36
12897;BME280;6516;35.028;32.372;2023-02-03T07:23:17;100716.09;;;13.49;77.58
12897;BME280;6516;35.028;32.372;2023-02-03T07:25:45;100709.22;;;13.80;78.71
12897;BME280;6516;35.028;32.372;2023-02-03T07:28:13;100707.25;;;13.90;71.72
12897;BME280;6516;35.028;32.372;2023-02-03T07:30:42;100715.13;;;13.93;71.69
12897;BME280;6516;35.028;32.372;2023-02-03T07:33:10;100708.22;;;13.86;72.07
12897;BME280;6516;35.028;32.372;2023-02-03T07:35:37;100713.50;;;13.86;70.91
12897;BME280;6516;35.028;32.372;2023-02-03T07:38:05;100713.22;;;13.99;71.99
12897;BME280;6516;35.028;32.372;2023-02-03T07:40:33;100716.38;;;14.15;69.77
12897;BME280;6516;35.028;32.372;2023-02-03T07:43:00;100717.78;;;14.31;70.29
12897;BME280;6516;35.028;32.372;2023-02-03T07:45:28;100712.47;;;14.32;69.64
12897;BME280;6516;35.028;32.372;2023-02-03T07:47:57;100719.72;;;14.24;69.57
12897;BME280;6516;35.028;32.372;2023-02-03T07:50:25;100718.16;;;14.14;68.88
12897;BME280;6516;35.028;32.372;2023-02-03T07:52:53;100720.78;;;14.16;68.21
12897;BME280;6516;35.028;32.372;2023-02-03T07:55:21;100720.44;;;14.31;68.26
12897;BME280;6516;35.028;32.372;2023-02-03T07:57:49;100729.84;;;14.44;68.82
12897;BME280;6516;35.028;32.372;2023-02-03T08:00:18;100721.47;;;14.60;67.91
12897;BME280;6516;35.028;32.372;2023-02-03T08:02:46;100722.13;;;14.70;67.42
12897;BME280;6516;35.028;32.372;2023-02-03T08:05:16;100716.84;;;14.68;64.57
12897;BME280;6516;35.028;32.372;2023-02-03T08:07:44;100720.50;;;14.64;63.06
12897;BME280;6516;35.028;32.372;2023-02-03T08:10:13;100714.75;;;14.81;62.24
12897;BME280;6516;35.028;32.372;2023-02-03T08:12:42;100709.13;;;15.25;61.53
12897;BME280;6516;35.028;32.372;2023-02-03T08:15:11;100712.06;;;15.77;60.02
12897;BME280;6516;35.028;32.372;2023-02-03T08:17:39;100714.66;;;16.07;61.59
12897;BME280;6516;35.028;32.372;2023-02-03T08:20:10;100702.28;;;16.06;57.68
12897;BME280;6516;35.028;32.372;2023-02-03T08:22:39;100706.91;;;16.00;59.29
12897;BME280;6516;35.028;32.372;2023-02-03T08:25:07;100711.72;;;15.87;58.69
12897;BME280;6516;35.028;32.372;2023-02-03T08:27:35;100710.84;;;15.58;58.80
12897;BME280;6516;35.028;32.372;2023-02-03T08:30:04;100704.16;;;15.45;61.25
12897;BME280;6516;35.028;32.372;2023-02-03T08:32:33;100702.91;;;15.58;60.88
12897;BME280;6516;35.028;32.372;2023-02-03T08:35:01;100692.47;;;15.81;60.49
12897;BME280;6516;35.028;32.372;2023-02-03T08:37:29;100689.34;;;15.96;54.87
12897;BME280;6516;35.028;32.372;2023-02-03T08:39:59;100694.06;;;16.43;56.03
12897;BME280;6516;35.028;32.372;2023-02-03T08:42:27;100680.94;;;16.89;54.47
12897;BME280;6516;35.028;32.372;2023-02-03T08:44:55;100675.84;;;17.07;51.68
12897;BME280;6516;35.028;32.372;2023-02-03T08:47:23;100671.59;;;17.51;49.31
12897;BME280;6516;35.028;32.372;2023-02-03T08:49:51;100672.78;;;17.88;49.62
12897;BME280;6516;35.028;32.372;2023-02-03T08:52:18;100664.81;;;18.10;47.05
12897;BME280;6516;35.028;32.372;2023-02-03T08:54:46;100675.16;;;17.96;46.52
12897;BME280;6516;35.028;32.372;2023-02-03T08:57:16;100669.97;;;17.47;49.10
12897;BME280;6516;35.028;32.372;2023-02-03T08:59:45;100670.75;;;17.49;49.25
12897;BME280;6516;35.028;32.372;2023-02-03T09:02:16;100674.53;;;17.19;47.83
12897;BME280;6516;35.028;32.372;2023-02-03T09:04:45;100667.72;;;17.35;47.17
12897;BME280;6516;35.028;32.372;2023-02-03T09:07:14;100659.53;;;17.64;47.48
12897;BME280;6516;35.028;32.372;2023-02-03T09:09:42;100655.56;;;17.97;48.71
12897;BME280;6516;35.028;32.372;2023-02-03T09:12:10;100656.78;;;18.33;46.75
12897;BME280;6516;35.028;32.372;2023-02-03T09:14:40;100659.03;;;18.63;45.97
12897;BME280;6516;35.028;32.372;2023-02-03T09:17:08;100655.09;;;18.92;45.79
12897;BME280;6516;35.028;32.372;2023-02-03T09:19:36;100657.81;;;19.10;46.38
12897;BME280;6516;35.028;32.372;2023-02-03T09:22:04;100643.84;;;18.65;45.41
12897;BME280;6516;35.028;32.372;2023-02-03T09:24:32;100654.00;;;18.56;47.29
12897;BME280;6516;35.028;32.372;2023-02-03T09:26:59;100644.28;;;18.12;47.45
12897;BME280;6516;35.028;32.372;2023-02-03T09:29:27;100642.34;;;17.49;49.41
12897;BME280;6516;35.028;32.372;2023-02-03T09:31:56;100643.78;;;17.10;49.82
12897;BME280;6516;35.028;32.372;2023-02-03T09:34:24;100653.31;;;16.15;51.84
12897;BME280;6516;35.028;32.372;2023-02-03T09:36:52;100653.03;;;15.96;53.61
12897;BME280;6516;35.028;32.372;2023-02-03T09:39:20;100639.22;;;15.85;54.17
12897;BME280;6516;35.028;32.372;2023-02-03T09:42:08;100635.66;;;16.40;53.54
12897;BME280;6516;35.028;32.372;2023-02-03T09:44:47;100627.75;;;16.89;52.48
12897;BME280;6516;35.028;32.372;2023-02-03T09:47:22;100615.63;;;17.52;50.76
12897;BME280;6516;35.028;32.372;2023-02-03T09:49:54;100621.03;;;17.94;48.43
12897;BME280;6516;35.028;32.372;2023-02-03T09:52:25;100612.19;;;18.15;49.86
12897;BME280;6516;35.028;32.372;2023-02-03T09:55:00;100607.53;;;18.20;48.30
12897;BME280;6516;35.028;32.372;2023-02-03T09:57:36;100607.59;;;18.18;45.55
12897;BME280;6516;35.028;32.372;2023-02-03T10:00:17;100588.53;;;18.49;45.87
12897;BME280;6516;35.028;32.372;2023-02-03T10:02:54;100591.88;;;18.74;44.66
12897;BME280;6516;35.028;32.372;2023-02-03T10:05:31;100587.84;;;18.84;45.13
12897;BME280;6516;35.028;32.372;2023-02-03T10:08:14;100573.47;;;18.68;44.03
12897;BME280;6516;35.028;32.372;2023-02-03T10:10:53;100584.22;;;18.66;48.55
12897;BME280;6516;35.028;32.372;2023-02-03T10:13:39;100584.09;;;19.08;47.44
12897;BME280;6516;35.028;32.372;2023-02-03T10:16:23;100576.50;;;18.99;48.06
12897;BME280;6516;35.028;32.372;2023-02-03T10:19:12;100576.66;;;18.76;46.01
12897;BME280;6516;35.028;32.372;2023-02-03T10:21:48;100581.94;;;18.77;48.17
12897;BME280;6516;35.028;32.372;2023-02-03T10:24:26;100579.47;;;18.73;48.12
12897;BME280;6516;35.028;32.372;2023-02-03T10:27:01;100573.38;;;18.69;47.88
12897;BME280;6516;35.028;32.372;2023-02-03T10:29:32;100558.66;;;18.61;45.71
12897;BME280;6516;35.028;32.372;2023-02-03T10:32:04;100563.78;;;18.45;46.54
12897;BME280;6516;35.028;32.372;2023-02-03T10:34:36;100560.00;;;18.09;50.18
12897;BME280;6516;35.028;32.372;2023-02-03T10:37:15;100552.94;;;18.08;54.01
12897;BME280;6516;35.028;32.372;2023-02-03T10:39:48;100549.22;;;17.69;55.89
12897;BME280;6516;35.028;32.372;2023-02-03T10:42:17;100556.28;;;17.49;55.91
12897;BME280;6516;35.028;32.372;2023-02-03T10:44:49;100554.59;;;17.00;56.12
12897;BME280;6516;35.028;32.372;2023-02-03T10:47:23;100558.22;;;16.50;58.01
12897;BME280;6516;35.028;32.372;2023-02-03T10:49:56;100544.78;;;16.29;59.72
12897;BME280;6516;35.028;32.372;2023-02-03T10:52:29;100545.44;;;16.11;58.67
12897;BME280;6516;35.028;32.372;2023-02-03T10:55:04;100535.19;;;16.51;57.56
12897;BME280;6516;35.028;32.372;2023-02-03T10:57:35;100535.69;;;16.85;55.37
12897;BME280;6516;35.028;32.372;2023-02-03T11:00:07;100530.84;;;17.19;52.76
12897;BME280;6516;35.028;32.372;2023-02-03T11:02:54;100528.53;;;17.76;50.39
12897;BME280;6516;35.028;32.372;2023-02-03T11:05:25;100525.38;;;17.88;49.50
12897;BME280;6516;35.028;32.372;2023-02-03T11:07:52;100521.97;;;17.41;47.40
12897;BME280;6516;35.028;32.372;2023-02-03T11:10:28;100525.53;;;17.19;49.20
12897;BME280;6516;35.028;32.372;2023-02-03T11:13:16;100520.81;;;17.25;48.29
12897;BME280;6516;35.028;32.372;2023-02-03T11:15:56;100512.28;;;17.17;48.19
12897;BME280;6516;35.028;32.372;2023-02-03T11:21:27;100516.97;;;16.88;50.98
12897;BME280;6516;35.028;32.372;2023-02-03T11:24:02;100516.38;;;17.03;52.91
12897;BME280;6516;35.028;32.372;2023-02-03T11:26:38;100521.25;;;17.15;53.16
12897;BME280;6516;35.028;32.372;2023-02-03T11:29:15;100521.69;;;17.03;53.02
12897;BME280;6516;35.028;32.372;2023-02-03T11:31:47;100512.56;;;16.87;53.78
12897;BME280;6516;35.028;32.372;2023-02-03T11:34:17;100513.56;;;16.84;53.07
12897;BME280;6516;35.028;32.372;2023-02-03T11:36:50;100507.44;;;16.58;51.05
12897;BME280;6516;35.028;32.372;2023-02-03T11:39:26;100505.78;;;16.78;51.30
12897;BME280;6516;35.028;32.372;2023-02-03T11:42:00;100495.44;;;16.94;51.33
12897;BME280;6516;35.028;32.372;2023-02-03T11:44:29;100492.94;;;17.57;52.09
12897;BME280;6516;35.028;32.372;2023-02-03T11:47:01;100493.19;;;17.72;49.91
12897;BME280;6516;35.028;32.372;2023-02-03T11:49:53;100490.84;;;17.65;48.31
12897;BME280;6516;35.028;32.372;2023-02-03T11:52:51;100496.25;;;17.42;49.63
12897;BME280;6516;35.028;32.372;2023-02-03T11:58:48;100490.03;;;17.41;49.73
12897;BME280;6516;35.028;32.372;2023-02-03T12:01:58;100483.84;;;17.62;48.74
12897;BME280;6516;35.028;32.372;2023-02-03T12:05:05;100482.84;;;17.65;47.26
12897;BME280;6516;35.028;32.372;2023-02-03T12:07:52;100480.59;;;18.17;49.25
12897;BME280;6516;35.028;32.372;2023-02-03T12:10:36;100494.31;;;17.88;47.75
12897;BME280;6516;35.028;32.372;2023-02-03T12:13:22;100497.03;;;17.65;49.34
12897;BME280;6516;35.028;32.372;2023-02-03T12:16:26;100488.53;;;17.34;50.58
12897;BME280;6516;35.028;32.372;2023-02-03T12:19:22;100483.13;;;17.36;49.85
12897;BME280;6516;35.028;32.372;2023-02-03T12:22:04;100471.56;;;17.37;51.26
12897;BME280;6516;35.028;32.372;2023-02-03T12:24:45;100465.84;;;17.24;51.01
12897;BME280;6516;35.028;32.372;2023-02-03T12:27:28;100476.03;;;16.92;51.19
12897;BME280;6516;35.028;32.372;2023-02-03T12:30:08;100478.78;;;16.66;51.80
12897;BME280;6516;35.028;32.372;2023-02-03T12:32:40;100474.25;;;16.45;52.54
12897;BME280;6516;35.028;32.372;2023-02-03T12:35:14;100470.81;;;16.17;52.05
12897;BME280;6516;35.028;32.372;2023-02-03T12:37:48;100472.66;;;15.64;53.72
12897;BME280;6516;35.028;32.372;2023-02-03T12:40:23;100474.06;;;15.21;54.39
12897;BME280;6516;35.028;32.372;2023-02-03T12:42:58;100468.41;;;15.04;55.02
12897;BME280;6516;35.028;32.372;2023-02-03T12:45:31;100477.88;;;14.83;57.02
12897;BME280;6516;35.028;32.372;2023-02-03T12:48:05;100481.03;;;14.67;57.62
12897;BME280;6516;35.028;32.372;2023-02-03T12:50:38;100480.47;;;14.56;58.38
12897;BME280;6516;35.028;32.372;2023-02-03T12:53:14;100474.13;;;14.61;58.19
12897;BME280;6516;35.028;32.372;2023-02-03T12:55:51;100468.97;;;14.57;57.32
12897;BME280;6516;35.028;32.372;2023-02-03T12:58:28;100475.78;;;14.35;56.58
12897;BME280;6516;35.028;32.372;2023-02-03T13:01:01;100472.34;;;13.98;57.74
12897;BME280;6516;35.028;32.372;2023-02-03T13:03:35;100471.94;;;13.79;59.94
12897;BME280;6516;35.028;32.372;2023-02-03T13:06:13;100469.69;;;13.64;62.37
12897;BME280;6516;35.028;32.372;2023-02-03T13:08:49;100475.19;;;13.57;65.14
12897;BME280;6516;35.028;32.372;2023-02-03T13:11:28;100471.69;;;13.55;65.78
12897;BME280;6516;35.028;32.372;2023-02-03T13:14:04;100470.88;;;13.53;67.01
12897;BME280;6516;35.028;32.372;2023-02-03T13:16:41;100471.47;;;13.29;65.68
12897;BME280;6516;35.028;32.372;2023-02-03T13:19:16;100472.56;;;13.19;66.31
12897;BME280;6516;35.028;32.372;2023-02-03T13:21:47;100473.09;;;12.98;67.50
12897;BME280;6516;35.028;32.372;2023-02-03T13:24:15;100469.84;;;12.84;66.08
12897;BME280;6516;35.028;32.372;2023-02-03T13:27:16;100469.06;;;12.79;66.36
12897;BME280;6516;35.028;32.372;2023-02-03T13:30:18;100468.06;;;12.83;68.68
12897;BME280;6516;35.028;32.372;2023-02-03T13:37:10;100449.31;;;12.57;66.03
12897;BME280;6516;35.028;32.372;2023-02-03T13:40:19;100447.72;;;12.47;68.38